KSFZ/SFZ METAR and TAF weather

Enter ICAO airport designator
Station Type Date Time Source
KSFZ METAR 2021/06/24 05:56 UTC NOAA

KSFZ 240556Z AUTO 00000KT 10SM CLR 10/10 A3034 RMK AO2 SLP280 6//// T01000100 10178 20100 51012 PNO $


Station Type Date Time Source
KSFZ Decoded METAR 2021/06/24 05:56 UTC NOAA

Pawtucket, North Central State Airport, RI, United States (KSFZ) 41-55N 071-30W
Jun 24, 2021 - 01:56 AM EDT / 2021.06.24 0556 UTC
Wind: Calm:0
Visibility: 10 mile(s):0
Sky conditions: clear
Temperature: 50.0 F (10.0 C)
Dew Point: 50.0 F (10.0 C)
Relative Humidity: 100%
Pressure (altimeter): 30.34 in. Hg (1027 hPa)
Pressure tendency: 0.04 inches (1.2 hPa) higher than three hours ago
ob: KSFZ 240556Z AUTO 00000KT 10SM CLR 10/10 A3034 RMK AO2 SLP280 6//// T01000100 10178 20100 51012 PNO
cycle: 6

Station Type Date Time Source
KSFZ TAF UTC NOAA

Error!

Example: see airport list